sensor_id;sensor_type;location;lat;lon;timestamp;P1;durP1;ratioP1;P2;durP2;ratioP2
60370;SDS011;48550;40.588;49.684;2023-12-20T00:02:19;8.07;;;3.83;;
60370;SDS011;48550;40.588;49.684;2023-12-20T00:04:44;6.40;;;3.15;;
60370;SDS011;48550;40.588;49.684;2023-12-20T00:07:10;8.45;;;4.15;;
60370;SDS011;48550;40.588;49.684;2023-12-20T00:09:36;8.65;;;3.95;;
60370;SDS011;48550;40.588;49.684;2023-12-20T00:12:02;8.70;;;3.83;;
60370;SDS011;48550;40.588;49.684;2023-12-20T00:14:28;13.40;;;6.40;;
60370;SDS011;48550;40.588;49.684;2023-12-20T00:16:53;8.77;;;3.85;;
60370;SDS011;48550;40.588;49.684;2023-12-20T00:19:19;7.85;;;3.45;;
60370;SDS011;48550;40.588;49.684;2023-12-20T00:21:45;7.22;;;3.78;;
60370;SDS011;48550;40.588;49.684;2023-12-20T00:24:10;7.65;;;3.30;;
60370;SDS011;48550;40.588;49.684;2023-12-20T00:26:36;6.40;;;4.20;;
60370;SDS011;48550;40.588;49.684;2023-12-20T00:29:02;7.95;;;3.60;;
60370;SDS011;48550;40.588;49.684;2023-12-20T00:31:27;5.30;;;3.58;;
60370;SDS011;48550;40.588;49.684;2023-12-20T00:33:53;4.60;;;2.95;;
60370;SDS011;48550;40.588;49.684;2023-12-20T00:36:19;6.40;;;3.35;;
60370;SDS011;48550;40.588;49.684;2023-12-20T00:38:45;9.57;;;4.13;;
60370;SDS011;48550;40.588;49.684;2023-12-20T00:41:11;6.00;;;3.60;;
60370;SDS011;48550;40.588;49.684;2023-12-20T00:43:36;7.65;;;5.25;;
60370;SDS011;48550;40.588;49.684;2023-12-20T00:46:02;8.25;;;5.15;;
60370;SDS011;48550;40.588;49.684;2023-12-20T00:48:28;7.03;;;4.43;;
60370;SDS011;48550;40.588;49.684;2023-12-20T00:50:56;10.23;;;5.18;;
60370;SDS011;48550;40.588;49.684;2023-12-20T00:53:22;8.20;;;4.40;;
60370;SDS011;48550;40.588;49.684;2023-12-20T00:55:48;7.35;;;3.90;;
60370;SDS011;48550;40.588;49.684;2023-12-20T00:58:15;8.88;;;3.95;;
60370;SDS011;48550;40.588;49.684;2023-12-20T01:00:41;6.40;;;3.15;;
60370;SDS011;48550;40.588;49.684;2023-12-20T01:03:08;6.80;;;3.10;;
60370;SDS011;48550;40.588;49.684;2023-12-20T01:05:33;5.07;;;2.58;;
60370;SDS011;48550;40.588;49.684;2023-12-20T01:07:59;5.80;;;3.65;;
60370;SDS011;48550;40.588;49.684;2023-12-20T01:10:25;5.95;;;3.65;;
60370;SDS011;48550;40.588;49.684;2023-12-20T01:12:53;7.60;;;3.33;;
60370;SDS011;48550;40.588;49.684;2023-12-20T01:15:19;5.15;;;2.80;;
60370;SDS011;48550;40.588;49.684;2023-12-20T01:17:44;5.90;;;3.03;;
60370;SDS011;48550;40.588;49.684;2023-12-20T01:20:10;5.28;;;2.90;;
60370;SDS011;48550;40.588;49.684;2023-12-20T01:22:36;7.35;;;3.22;;
60370;SDS011;48550;40.588;49.684;2023-12-20T01:25:02;7.70;;;3.25;;
60370;SDS011;48550;40.588;49.684;2023-12-20T01:27:27;6.63;;;2.85;;
60370;SDS011;48550;40.588;49.684;2023-12-20T01:29:54;6.18;;;3.15;;
60370;SDS011;48550;40.588;49.684;2023-12-20T01:32:19;7.15;;;2.95;;
60370;SDS011;48550;40.588;49.684;2023-12-20T01:34:45;3.90;;;2.47;;
60370;SDS011;48550;40.588;49.684;2023-12-20T01:37:11;5.60;;;3.13;;
60370;SDS011;48550;40.588;49.684;2023-12-20T01:39:37;9.15;;;3.88;;
60370;SDS011;48550;40.588;49.684;2023-12-20T01:42:02;9.10;;;3.80;;
60370;SDS011;48550;40.588;49.684;2023-12-20T01:44:28;6.55;;;3.90;;
60370;SDS011;48550;40.588;49.684;2023-12-20T01:46:54;8.85;;;5.55;;
60370;SDS011;48550;40.588;49.684;2023-12-20T01:49:20;7.18;;;4.22;;
60370;SDS011;48550;40.588;49.684;2023-12-20T01:51:46;8.10;;;4.75;;
60370;SDS011;48550;40.588;49.684;2023-12-20T01:54:13;8.23;;;4.10;;
60370;SDS011;48550;40.588;49.684;2023-12-20T01:56:38;9.10;;;4.65;;
60370;SDS011;48550;40.588;49.684;2023-12-20T01:59:06;6.95;;;3.85;;
60370;SDS011;48550;40.588;49.684;2023-12-20T02:01:32;8.23;;;3.92;;
60370;SDS011;48550;40.588;49.684;2023-12-20T02:03:58;6.13;;;4.05;;
60370;SDS011;48550;40.588;49.684;2023-12-20T02:06:25;7.00;;;3.50;;
60370;SDS011;48550;40.588;49.684;2023-12-20T02:08:55;14.25;;;4.00;;
60370;SDS011;48550;40.588;49.684;2023-12-20T02:11:22;7.50;;;4.13;;
60370;SDS011;48550;40.588;49.684;2023-12-20T02:13:47;4.70;;;2.70;;
60370;SDS011;48550;40.588;49.684;2023-12-20T02:16:13;7.88;;;3.40;;
60370;SDS011;48550;40.588;49.684;2023-12-20T02:18:39;5.40;;;3.28;;
60370;SDS011;48550;40.588;49.684;2023-12-20T02:21:05;6.35;;;3.35;;
60370;SDS011;48550;40.588;49.684;2023-12-20T02:23:31;4.70;;;2.25;;
60370;SDS011;48550;40.588;49.684;2023-12-20T02:25:56;7.20;;;3.72;;
60370;SDS011;48550;40.588;49.684;2023-12-20T02:28:22;5.53;;;3.33;;
60370;SDS011;48550;40.588;49.684;2023-12-20T02:30:48;5.20;;;2.78;;
60370;SDS011;48550;40.588;49.684;2023-12-20T02:33:14;6.80;;;3.85;;
60370;SDS011;48550;40.588;49.684;2023-12-20T02:35:40;4.65;;;2.00;;
60370;SDS011;48550;40.588;49.684;2023-12-20T02:38:06;10.60;;;3.97;;
60370;SDS011;48550;40.588;49.684;2023-12-20T02:40:32;5.07;;;2.78;;
60370;SDS011;48550;40.588;49.684;2023-12-20T02:42:58;4.55;;;2.47;;
60370;SDS011;48550;40.588;49.684;2023-12-20T02:45:23;8.35;;;3.53;;
60370;SDS011;48550;40.588;49.684;2023-12-20T02:47:49;6.82;;;3.60;;
60370;SDS011;48550;40.588;49.684;2023-12-20T02:50:14;11.20;;;4.03;;
60370;SDS011;48550;40.588;49.684;2023-12-20T02:52:40;7.03;;;3.00;;
60370;SDS011;48550;40.588;49.684;2023-12-20T02:55:08;3.75;;;2.22;;
60370;SDS011;48550;40.588;49.684;2023-12-20T02:57:33;8.98;;;3.92;;
60370;SDS011;48550;40.588;49.684;2023-12-20T03:00:01;6.78;;;3.20;;
60370;SDS011;48550;40.588;49.684;2023-12-20T03:02:27;7.93;;;3.85;;
60370;SDS011;48550;40.588;49.684;2023-12-20T03:04:52;9.07;;;3.10;;
60370;SDS011;48550;40.588;49.684;2023-12-20T03:07:19;13.60;;;3.45;;
60370;SDS011;48550;40.588;49.684;2023-12-20T03:09:45;7.22;;;4.03;;
60370;SDS011;48550;40.588;49.684;2023-12-20T03:12:10;8.55;;;4.53;;
60370;SDS011;48550;40.588;49.684;2023-12-20T03:14:36;6.00;;;3.42;;
60370;SDS011;48550;40.588;49.684;2023-12-20T03:17:02;6.55;;;4.05;;
60370;SDS011;48550;40.588;49.684;2023-12-20T03:19:28;9.23;;;4.63;;
60370;SDS011;48550;40.588;49.684;2023-12-20T03:21:54;11.25;;;4.95;;
60370;SDS011;48550;40.588;49.684;2023-12-20T03:24:19;8.88;;;4.43;;
60370;SDS011;48550;40.588;49.684;2023-12-20T03:26:45;12.48;;;5.78;;
60370;SDS011;48550;40.588;49.684;2023-12-20T03:29:11;16.17;;;6.13;;
60370;SDS011;48550;40.588;49.684;2023-12-20T03:31:36;10.52;;;5.28;;
60370;SDS011;48550;40.588;49.684;2023-12-20T03:34:02;8.57;;;4.40;;
60370;SDS011;48550;40.588;49.684;2023-12-20T03:36:28;9.82;;;4.47;;
60370;SDS011;48550;40.588;49.684;2023-12-20T03:38:53;7.22;;;3.50;;
60370;SDS011;48550;40.588;49.684;2023-12-20T03:41:19;11.88;;;5.13;;
60370;SDS011;48550;40.588;49.684;2023-12-20T03:43:45;13.80;;;5.43;;
60370;SDS011;48550;40.588;49.684;2023-12-20T03:46:10;22.75;;;6.35;;
60370;SDS011;48550;40.588;49.684;2023-12-20T03:48:36;23.05;;;6.43;;
60370;SDS011;48550;40.588;49.684;2023-12-20T03:51:02;14.13;;;6.30;;
60370;SDS011;48550;40.588;49.684;2023-12-20T03:53:28;31.35;;;8.60;;
60370;SDS011;48550;40.588;49.684;2023-12-20T03:55:53;25.30;;;8.02;;
60370;SDS011;48550;40.588;49.684;2023-12-20T03:58:19;30.98;;;8.63;;
60370;SDS011;48550;40.588;49.684;2023-12-20T04:00:45;23.00;;;8.30;;
60370;SDS011;48550;40.588;49.684;2023-12-20T04:03:10;19.65;;;7.93;;
60370;SDS011;48550;40.588;49.684;2023-12-20T04:05:39;29.27;;;8.27;;
60370;SDS011;48550;40.588;49.684;2023-12-20T04:08:05;16.52;;;7.28;;
60370;SDS011;48550;40.588;49.684;2023-12-20T04:10:31;20.25;;;6.75;;
60370;SDS011;48550;40.588;49.684;2023-12-20T04:12:57;25.67;;;7.75;;
60370;SDS011;48550;40.588;49.684;2023-12-20T04:15:22;30.20;;;7.47;;
60370;SDS011;48550;40.588;49.684;2023-12-20T04:17:48;17.00;;;5.65;;
60370;SDS011;48550;40.588;49.684;2023-12-20T04:20:14;14.23;;;4.97;;
60370;SDS011;48550;40.588;49.684;2023-12-20T04:22:39;23.40;;;6.40;;
60370;SDS011;48550;40.588;49.684;2023-12-20T04:25:05;11.85;;;4.93;;
60370;SDS011;48550;40.588;49.684;2023-12-20T04:27:31;13.02;;;4.82;;
60370;SDS011;48550;40.588;49.684;2023-12-20T04:29:56;9.25;;;4.30;;
60370;SDS011;48550;40.588;49.684;2023-12-20T04:32:22;17.98;;;5.43;;
60370;SDS011;48550;40.588;49.684;2023-12-20T04:34:48;17.05;;;5.50;;
60370;SDS011;48550;40.588;49.684;2023-12-20T04:37:14;11.23;;;4.85;;
60370;SDS011;48550;40.588;49.684;2023-12-20T04:39:39;19.23;;;5.85;;
60370;SDS011;48550;40.588;49.684;2023-12-20T04:42:06;12.13;;;5.97;;
60370;SDS011;48550;40.588;49.684;2023-12-20T04:44:32;19.67;;;9.65;;
60370;SDS011;48550;40.588;49.684;2023-12-20T04:46:57;26.75;;;6.82;;
60370;SDS011;48550;40.588;49.684;2023-12-20T04:49:23;19.90;;;7.38;;
60370;SDS011;48550;40.588;49.684;2023-12-20T04:51:49;16.67;;;7.90;;
60370;SDS011;48550;40.588;49.684;2023-12-20T04:54:15;23.83;;;9.50;;
60370;SDS011;48550;40.588;49.684;2023-12-20T04:56:41;27.52;;;9.13;;
60370;SDS011;48550;40.588;49.684;2023-12-20T04:59:06;23.65;;;7.75;;
60370;SDS011;48550;40.588;49.684;2023-12-20T05:01:32;20.20;;;9.00;;
60370;SDS011;48550;40.588;49.684;2023-12-20T05:03:58;20.38;;;8.07;;
60370;SDS011;48550;40.588;49.684;2023-12-20T05:06:23;24.75;;;7.90;;
60370;SDS011;48550;40.588;49.684;2023-12-20T05:08:49;12.25;;;5.70;;
60370;SDS011;48550;40.588;49.684;2023-12-20T05:11:15;15.27;;;5.57;;
60370;SDS011;48550;40.588;49.684;2023-12-20T05:13:41;19.60;;;5.63;;
60370;SDS011;48550;40.588;49.684;2023-12-20T05:16:07;13.98;;;6.20;;
60370;SDS011;48550;40.588;49.684;2023-12-20T05:18:34;12.05;;;6.55;;
60370;SDS011;48550;40.588;49.684;2023-12-20T05:21:00;12.82;;;5.40;;
60370;SDS011;48550;40.588;49.684;2023-12-20T05:23:26;10.30;;;5.15;;
60370;SDS011;48550;40.588;49.684;2023-12-20T05:25:51;13.05;;;5.97;;
60370;SDS011;48550;40.588;49.684;2023-12-20T05:28:17;7.15;;;4.32;;
60370;SDS011;48550;40.588;49.684;2023-12-20T05:30:43;9.38;;;4.47;;
60370;SDS011;48550;40.588;49.684;2023-12-20T05:33:08;13.23;;;7.00;;
60370;SDS011;48550;40.588;49.684;2023-12-20T05:35:34;14.25;;;5.82;;
60370;SDS011;48550;40.588;49.684;2023-12-20T05:38:00;12.23;;;6.20;;
60370;SDS011;48550;40.588;49.684;2023-12-20T05:40:26;8.98;;;5.25;;
60370;SDS011;48550;40.588;49.684;2023-12-20T05:42:51;8.18;;;4.55;;
60370;SDS011;48550;40.588;49.684;2023-12-20T05:45:17;8.45;;;4.18;;
60370;SDS011;48550;40.588;49.684;2023-12-20T05:47:43;9.02;;;4.68;;
60370;SDS011;48550;40.588;49.684;2023-12-20T05:50:08;6.68;;;3.90;;
60370;SDS011;48550;40.588;49.684;2023-12-20T05:52:34;11.52;;;5.60;;
60370;SDS011;48550;40.588;49.684;2023-12-20T05:55:00;8.77;;;4.70;;
60370;SDS011;48550;40.588;49.684;2023-12-20T05:57:28;7.40;;;4.20;;
60370;SDS011;48550;40.588;49.684;2023-12-20T05:59:54;8.73;;;4.60;;
60370;SDS011;48550;40.588;49.684;2023-12-20T06:02:19;8.57;;;4.50;;
60370;SDS011;48550;40.588;49.684;2023-12-20T06:04:45;7.95;;;4.90;;
60370;SDS011;48550;40.588;49.684;2023-12-20T06:07:14;13.60;;;4.85;;
60370;SDS011;48550;40.588;49.684;2023-12-20T06:09:40;11.55;;;5.32;;
60370;SDS011;48550;40.588;49.684;2023-12-20T06:12:06;11.50;;;4.35;;
60370;SDS011;48550;40.588;49.684;2023-12-20T06:14:33;9.55;;;4.80;;
60370;SDS011;48550;40.588;49.684;2023-12-20T06:17:00;8.43;;;4.22;;
60370;SDS011;48550;40.588;49.684;2023-12-20T06:19:26;12.45;;;5.25;;
60370;SDS011;48550;40.588;49.684;2023-12-20T06:21:52;9.02;;;4.47;;
60370;SDS011;48550;40.588;49.684;2023-12-20T06:24:18;13.55;;;6.57;;
60370;SDS011;48550;40.588;49.684;2023-12-20T06:26:43;8.95;;;4.43;;
60370;SDS011;48550;40.588;49.684;2023-12-20T06:29:09;11.27;;;4.95;;
60370;SDS011;48550;40.588;49.684;2023-12-20T06:31:35;10.50;;;5.13;;
60370;SDS011;48550;40.588;49.684;2023-12-20T06:34:00;10.27;;;4.68;;
60370;SDS011;48550;40.588;49.684;2023-12-20T06:36:26;14.73;;;5.70;;
60370;SDS011;48550;40.588;49.684;2023-12-20T06:38:52;11.45;;;5.00;;
60370;SDS011;48550;40.588;49.684;2023-12-20T06:41:18;11.68;;;5.88;;
60370;SDS011;48550;40.588;49.684;2023-12-20T06:43:44;9.07;;;4.97;;
60370;SDS011;48550;40.588;49.684;2023-12-20T06:46:09;10.25;;;5.50;;
60370;SDS011;48550;40.588;49.684;2023-12-20T06:48:35;11.95;;;5.30;;
60370;SDS011;48550;40.588;49.684;2023-12-20T06:51:01;11.77;;;4.65;;
60370;SDS011;48550;40.588;49.684;2023-12-20T06:53:27;7.57;;;4.90;;
60370;SDS011;48550;40.588;49.684;2023-12-20T06:55:53;11.75;;;5.75;;
60370;SDS011;48550;40.588;49.684;2023-12-20T06:58:21;10.23;;;5.75;;
60370;SDS011;48550;40.588;49.684;2023-12-20T07:00:47;18.42;;;6.57;;
60370;SDS011;48550;40.588;49.684;2023-12-20T07:03:13;10.90;;;5.40;;
60370;SDS011;48550;40.588;49.684;2023-12-20T07:05:38;12.38;;;5.70;;
60370;SDS011;48550;40.588;49.684;2023-12-20T07:08:06;9.65;;;4.55;;
60370;SDS011;48550;40.588;49.684;2023-12-20T07:10:31;12.63;;;4.68;;
60370;SDS011;48550;40.588;49.684;2023-12-20T07:12:57;8.90;;;5.43;;
60370;SDS011;48550;40.588;49.684;2023-12-20T07:15:23;11.65;;;5.78;;
60370;SDS011;48550;40.588;49.684;2023-12-20T07:17:48;5.65;;;3.42;;
60370;SDS011;48550;40.588;49.684;2023-12-20T07:20:14;5.20;;;3.03;;
60370;SDS011;48550;40.588;49.684;2023-12-20T07:22:40;8.90;;;3.03;;
60370;SDS011;48550;40.588;49.684;2023-12-20T07:25:06;13.45;;;5.82;;
60370;SDS011;48550;40.588;49.684;2023-12-20T07:27:32;12.75;;;6.10;;
60370;SDS011;48550;40.588;49.684;2023-12-20T07:29:58;12.55;;;5.63;;
60370;SDS011;48550;40.588;49.684;2023-12-20T07:32:23;15.80;;;5.30;;
60370;SDS011;48550;40.588;49.684;2023-12-20T07:34:49;11.70;;;6.20;;
60370;SDS011;48550;40.588;49.684;2023-12-20T07:37:15;7.88;;;3.55;;
60370;SDS011;48550;40.588;49.684;2023-12-20T07:39:41;10.40;;;4.97;;
60370;SDS011;48550;40.588;49.684;2023-12-20T07:42:07;6.32;;;3.58;;
60370;SDS011;48550;40.588;49.684;2023-12-20T07:44:33;8.88;;;4.68;;
60370;SDS011;48550;40.588;49.684;2023-12-20T07:47:01;8.20;;;4.35;;
60370;SDS011;48550;40.588;49.684;2023-12-20T07:49:26;15.25;;;5.07;;
60370;SDS011;48550;40.588;49.684;2023-12-20T07:51:52;15.00;;;6.50;;
60370;SDS011;48550;40.588;49.684;2023-12-20T07:54:18;10.75;;;5.45;;
60370;SDS011;48550;40.588;49.684;2023-12-20T07:56:44;8.25;;;4.57;;
60370;SDS011;48550;40.588;49.684;2023-12-20T07:59:11;8.32;;;4.40;;
60370;SDS011;48550;40.588;49.684;2023-12-20T08:01:37;13.93;;;5.10;;
60370;SDS011;48550;40.588;49.684;2023-12-20T08:04:03;10.93;;;4.00;;
60370;SDS011;48550;40.588;49.684;2023-12-20T08:06:28;11.52;;;4.15;;
60370;SDS011;48550;40.588;49.684;2023-12-20T08:08:54;8.57;;;3.30;;
60370;SDS011;48550;40.588;49.684;2023-12-20T08:11:20;10.63;;;5.63;;
60370;SDS011;48550;40.588;49.684;2023-12-20T08:13:45;15.05;;;5.90;;
60370;SDS011;48550;40.588;49.684;2023-12-20T08:16:11;11.23;;;5.32;;
60370;SDS011;48550;40.588;49.684;2023-12-20T08:18:39;16.00;;;5.60;;
60370;SDS011;48550;40.588;49.684;2023-12-20T08:21:04;8.35;;;4.10;;
60370;SDS011;48550;40.588;49.684;2023-12-20T08:23:32;8.20;;;4.43;;
60370;SDS011;48550;40.588;49.684;2023-12-20T08:26:03;9.20;;;5.40;;
60370;SDS011;48550;40.588;49.684;2023-12-20T08:30:57;9.20;;;4.10;;
60370;SDS011;48550;40.588;49.684;2023-12-20T08:33:23;11.60;;;4.68;;
60370;SDS011;48550;40.588;49.684;2023-12-20T08:35:48;8.20;;;3.78;;
60370;SDS011;48550;40.588;49.684;2023-12-20T08:38:14;16.65;;;5.53;;
60370;SDS011;48550;40.588;49.684;2023-12-20T08:40:40;10.75;;;3.58;;
60370;SDS011;48550;40.588;49.684;2023-12-20T08:43:06;9.90;;;4.53;;
60370;SDS011;48550;40.588;49.684;2023-12-20T08:45:32;10.27;;;5.15;;
60370;SDS011;48550;40.588;49.684;2023-12-20T08:47:57;10.60;;;4.50;;
60370;SDS011;48550;40.588;49.684;2023-12-20T08:50:25;10.70;;;4.22;;
60370;SDS011;48550;40.588;49.684;2023-12-20T08:52:50;10.05;;;3.80;;
60370;SDS011;48550;40.588;49.684;2023-12-20T08:55:16;12.10;;;4.68;;
60370;SDS011;48550;40.588;49.684;2023-12-20T08:57:43;11.77;;;4.53;;
60370;SDS011;48550;40.588;49.684;2023-12-20T09:00:09;8.15;;;3.67;;
60370;SDS011;48550;40.588;49.684;2023-12-20T09:02:35;11.38;;;4.95;;
60370;SDS011;48550;40.588;49.684;2023-12-20T09:05:04;10.80;;;4.13;;
60370;SDS011;48550;40.588;49.684;2023-12-20T09:07:30;6.30;;;3.60;;
60370;SDS011;48550;40.588;49.684;2023-12-20T09:09:57;16.85;;;4.65;;
60370;SDS011;48550;40.588;49.684;2023-12-20T09:12:23;5.93;;;2.90;;
60370;SDS011;48550;40.588;49.684;2023-12-20T09:14:49;5.22;;;3.25;;
60370;SDS011;48550;40.588;49.684;2023-12-20T09:17:17;7.38;;;3.55;;
60370;SDS011;48550;40.588;49.684;2023-12-20T09:19:43;12.43;;;4.75;;
60370;SDS011;48550;40.588;49.684;2023-12-20T09:22:09;13.48;;;5.60;;
60370;SDS011;48550;40.588;49.684;2023-12-20T09:24:35;7.07;;;3.53;;
60370;SDS011;48550;40.588;49.684;2023-12-20T09:27:01;11.13;;;4.30;;
60370;SDS011;48550;40.588;49.684;2023-12-20T09:29:27;8.73;;;4.57;;
60370;SDS011;48550;40.588;49.684;2023-12-20T09:31:54;9.05;;;4.63;;
60370;SDS011;48550;40.588;49.684;2023-12-20T09:34:19;8.18;;;4.20;;
60370;SDS011;48550;40.588;49.684;2023-12-20T09:36:46;15.57;;;4.80;;
60370;SDS011;48550;40.588;49.684;2023-12-20T09:39:15;8.30;;;3.78;;
60370;SDS011;48550;40.588;49.684;2023-12-20T09:41:46;6.82;;;3.63;;
60370;SDS011;48550;40.588;49.684;2023-12-20T09:44:19;3.53;;;2.50;;
60370;SDS011;48550;40.588;49.684;2023-12-20T09:46:45;6.10;;;3.30;;
60370;SDS011;48550;40.588;49.684;2023-12-20T09:49:14;11.85;;;3.30;;
60370;SDS011;48550;40.588;49.684;2023-12-20T09:51:42;6.22;;;3.10;;
60370;SDS011;48550;40.588;49.684;2023-12-20T09:54:08;10.05;;;3.47;;
60370;SDS011;48550;40.588;49.684;2023-12-20T09:56:35;10.13;;;3.47;;
60370;SDS011;48550;40.588;49.684;2023-12-20T09:59:02;7.45;;;3.60;;
60370;SDS011;48550;40.588;49.684;2023-12-20T10:01:28;12.60;;;4.40;;
60370;SDS011;48550;40.588;49.684;2023-12-20T10:03:54;9.77;;;4.00;;
60370;SDS011;48550;40.588;49.684;2023-12-20T10:06:23;9.75;;;3.30;;
60370;SDS011;48550;40.588;49.684;2023-12-20T10:08:48;6.60;;;3.42;;
60370;SDS011;48550;40.588;49.684;2023-12-20T10:11:14;9.65;;;3.83;;
60370;SDS011;48550;40.588;49.684;2023-12-20T10:13:40;9.80;;;4.75;;
60370;SDS011;48550;40.588;49.684;2023-12-20T10:16:07;9.07;;;3.42;;
60370;SDS011;48550;40.588;49.684;2023-12-20T10:18:32;11.75;;;5.15;;
60370;SDS011;48550;40.588;49.684;2023-12-20T10:20:58;22.23;;;4.93;;
60370;SDS011;48550;40.588;49.684;2023-12-20T10:23:25;8.75;;;3.92;;
60370;SDS011;48550;40.588;49.684;2023-12-20T10:25:57;7.55;;;4.03;;
60370;SDS011;48550;40.588;49.684;2023-12-20T10:30:53;11.25;;;4.50;;
60370;SDS011;48550;40.588;49.684;2023-12-20T10:33:25;9.45;;;4.03;;
60370;SDS011;48550;40.588;49.684;2023-12-20T10:35:52;11.02;;;5.05;;
60370;SDS011;48550;40.588;49.684;2023-12-20T10:38:18;9.55;;;3.85;;
60370;SDS011;48550;40.588;49.684;2023-12-20T10:40:46;7.07;;;3.80;;
60370;SDS011;48550;40.588;49.684;2023-12-20T10:43:12;10.40;;;4.93;;
60370;SDS011;48550;40.588;49.684;2023-12-20T10:45:40;8.20;;;3.78;;
60370;SDS011;48550;40.588;49.684;2023-12-20T10:48:07;5.50;;;3.13;;
60370;SDS011;48550;40.588;49.684;2023-12-20T10:50:35;8.73;;;3.78;;
60370;SDS011;48550;40.588;49.684;2023-12-20T10:53:03;8.45;;;3.63;;
60370;SDS011;48550;40.588;49.684;2023-12-20T10:55:29;6.68;;;3.60;;
60370;SDS011;48550;40.588;49.684;2023-12-20T10:58:08;7.70;;;4.15;;
60370;SDS011;48550;40.588;49.684;2023-12-20T11:00:35;13.30;;;4.75;;
60370;SDS011;48550;40.588;49.684;2023-12-20T11:03:10;21.30;;;5.10;;
60370;SDS011;48550;40.588;49.684;2023-12-20T11:08:52;12.93;;;5.97;;
60370;SDS011;48550;40.588;49.684;2023-12-20T11:11:31;11.35;;;4.40;;
60370;SDS011;48550;40.588;49.684;2023-12-20T11:14:12;8.35;;;3.83;;
60370;SDS011;48550;40.588;49.684;2023-12-20T11:16:42;10.65;;;4.25;;
60370;SDS011;48550;40.588;49.684;2023-12-20T11:19:08;8.32;;;4.68;;
60370;SDS011;48550;40.588;49.684;2023-12-20T11:21:36;9.55;;;4.78;;
60370;SDS011;48550;40.588;49.684;2023-12-20T11:24:02;11.07;;;4.65;;
60370;SDS011;48550;40.588;49.684;2023-12-20T11:26:29;12.32;;;5.03;;
60370;SDS011;48550;40.588;49.684;2023-12-20T11:31:55;10.18;;;5.50;;
60370;SDS011;48550;40.588;49.684;2023-12-20T11:34:21;10.00;;;4.45;;
60370;SDS011;48550;40.588;49.684;2023-12-20T11:36:46;11.07;;;3.85;;
60370;SDS011;48550;40.588;49.684;2023-12-20T11:39:12;10.07;;;4.80;;
60370;SDS011;48550;40.588;49.684;2023-12-20T11:41:46;12.43;;;4.55;;
60370;SDS011;48550;40.588;49.684;2023-12-20T11:44:14;6.88;;;3.78;;
60370;SDS011;48550;40.588;49.684;2023-12-20T11:46:44;14.55;;;4.32;;
60370;SDS011;48550;40.588;49.684;2023-12-20T11:49:09;10.57;;;5.50;;
60370;SDS011;48550;40.588;49.684;2023-12-20T11:51:35;7.85;;;4.35;;
60370;SDS011;48550;40.588;49.684;2023-12-20T11:54:06;8.05;;;4.10;;
60370;SDS011;48550;40.588;49.684;2023-12-20T11:56:32;13.90;;;5.32;;
60370;SDS011;48550;40.588;49.684;2023-12-20T11:58:58;11.35;;;5.05;;
60370;SDS011;48550;40.588;49.684;2023-12-20T12:01:24;10.95;;;4.60;;
60370;SDS011;48550;40.588;49.684;2023-12-20T12:04:01;5.38;;;3.60;;
60370;SDS011;48550;40.588;49.684;2023-12-20T12:06:28;10.00;;;3.90;;
60370;SDS011;48550;40.588;49.684;2023-12-20T12:08:54;6.88;;;2.55;;
60370;SDS011;48550;40.588;49.684;2023-12-20T12:11:20;12.25;;;4.32;;
60370;SDS011;48550;40.588;49.684;2023-12-20T12:13:47;16.98;;;5.72;;
60370;SDS011;48550;40.588;49.684;2023-12-20T12:16:16;17.65;;;5.68;;
60370;SDS011;48550;40.588;49.684;2023-12-20T12:18:43;11.13;;;4.82;;
60370;SDS011;48550;40.588;49.684;2023-12-20T12:21:10;5.25;;;3.10;;
60370;SDS011;48550;40.588;49.684;2023-12-20T12:23:35;10.30;;;3.08;;
60370;SDS011;48550;40.588;49.684;2023-12-20T12:26:03;10.60;;;3.60;;
60370;SDS011;48550;40.588;49.684;2023-12-20T12:28:29;14.07;;;6.07;;
60370;SDS011;48550;40.588;49.684;2023-12-20T12:31:00;18.67;;;10.05;;
60370;SDS011;48550;40.588;49.684;2023-12-20T12:33:26;20.05;;;6.32;;
60370;SDS011;48550;40.588;49.684;2023-12-20T12:35:52;19.88;;;5.88;;
60370;SDS011;48550;40.588;49.684;2023-12-20T12:38:21;9.73;;;4.22;;
60370;SDS011;48550;40.588;49.684;2023-12-20T12:40:47;5.65;;;3.30;;
60370;SDS011;48550;40.588;49.684;2023-12-20T12:43:14;11.20;;;4.72;;
60370;SDS011;48550;40.588;49.684;2023-12-20T12:45:40;14.48;;;5.40;;
60370;SDS011;48550;40.588;49.684;2023-12-20T12:48:06;16.23;;;5.38;;
60370;SDS011;48550;40.588;49.684;2023-12-20T12:50:32;13.30;;;6.40;;
60370;SDS011;48550;40.588;49.684;2023-12-20T12:52:58;15.30;;;5.65;;
60370;SDS011;48550;40.588;49.684;2023-12-20T12:55:23;12.93;;;6.07;;
60370;SDS011;48550;40.588;49.684;2023-12-20T12:57:49;9.30;;;5.72;;
60370;SDS011;48550;40.588;49.684;2023-12-20T13:00:15;9.70;;;5.32;;
60370;SDS011;48550;40.588;49.684;2023-12-20T13:02:41;13.63;;;6.55;;
60370;SDS011;48550;40.588;49.684;2023-12-20T13:05:07;13.23;;;6.82;;
60370;SDS011;48550;40.588;49.684;2023-12-20T13:07:33;15.85;;;5.55;;
60370;SDS011;48550;40.588;49.684;2023-12-20T13:09:59;17.02;;;5.45;;
60370;SDS011;48550;40.588;49.684;2023-12-20T13:12:25;12.45;;;6.07;;
60370;SDS011;48550;40.588;49.684;2023-12-20T13:14:51;20.10;;;7.38;;
60370;SDS011;48550;40.588;49.684;2023-12-20T13:17:17;11.05;;;5.00;;
60370;SDS011;48550;40.588;49.684;2023-12-20T13:19:42;12.00;;;5.68;;
60370;SDS011;48550;40.588;49.684;2023-12-20T13:22:08;12.65;;;6.40;;
60370;SDS011;48550;40.588;49.684;2023-12-20T13:24:34;10.02;;;4.45;;
60370;SDS011;48550;40.588;49.684;2023-12-20T13:27:00;10.93;;;4.43;;
60370;SDS011;48550;40.588;49.684;2023-12-20T13:29:25;10.95;;;5.40;;
60370;SDS011;48550;40.588;49.684;2023-12-20T13:31:54;10.98;;;5.75;;
60370;SDS011;48550;40.588;49.684;2023-12-20T13:34:20;18.00;;;6.15;;
60370;SDS011;48550;40.588;49.684;2023-12-20T13:36:46;12.75;;;5.35;;
60370;SDS011;48550;40.588;49.684;2023-12-20T13:39:13;9.18;;;4.25;;
60370;SDS011;48550;40.588;49.684;2023-12-20T13:41:39;15.18;;;9.35;;
60370;SDS011;48550;40.588;49.684;2023-12-20T13:44:05;18.88;;;7.53;;
60370;SDS011;48550;40.588;49.684;2023-12-20T13:46:30;9.50;;;4.47;;
60370;SDS011;48550;40.588;49.684;2023-12-20T13:48:56;10.73;;;5.75;;
60370;SDS011;48550;40.588;49.684;2023-12-20T13:51:22;12.38;;;4.95;;
60370;SDS011;48550;40.588;49.684;2023-12-20T13:53:48;9.18;;;4.75;;
60370;SDS011;48550;40.588;49.684;2023-12-20T13:56:14;16.73;;;6.65;;
60370;SDS011;48550;40.588;49.684;2023-12-20T13:58:40;13.40;;;5.72;;
60370;SDS011;48550;40.588;49.684;2023-12-20T14:01:11;21.67;;;9.57;;
60370;SDS011;48550;40.588;49.684;2023-12-20T14:03:37;16.73;;;6.55;;
60370;SDS011;48550;40.588;49.684;2023-12-20T14:06:03;13.40;;;5.82;;
60370;SDS011;48550;40.588;49.684;2023-12-20T14:08:29;9.95;;;5.15;;
60370;SDS011;48550;40.588;49.684;2023-12-20T14:10:54;12.77;;;6.18;;
60370;SDS011;48550;40.588;49.684;2023-12-20T14:13:20;12.25;;;5.35;;
60370;SDS011;48550;40.588;49.684;2023-12-20T14:15:46;8.93;;;5.20;;
60370;SDS011;48550;40.588;49.684;2023-12-20T14:18:13;15.18;;;6.18;;
60370;SDS011;48550;40.588;49.684;2023-12-20T14:20:40;16.05;;;7.10;;
60370;SDS011;48550;40.588;49.684;2023-12-20T14:23:07;17.83;;;8.48;;
60370;SDS011;48550;40.588;49.684;2023-12-20T14:25:34;13.48;;;6.18;;
60370;SDS011;48550;40.588;49.684;2023-12-20T14:28:02;8.07;;;3.75;;
60370;SDS011;48550;40.588;49.684;2023-12-20T14:30:29;13.95;;;5.45;;
60370;SDS011;48550;40.588;49.684;2023-12-20T14:32:54;13.23;;;6.32;;
60370;SDS011;48550;40.588;49.684;2023-12-20T14:35:20;14.57;;;6.20;;